createdAt,value
2023-04-27T00:01:11.401Z,6.77
2023-04-27T00:03:38.730Z,5.80
2023-04-27T00:06:05.938Z,6.40
2023-04-27T00:08:32.538Z,5.83
2023-04-27T00:10:59.371Z,5.97
2023-04-27T00:13:26.860Z,5.50
2023-04-27T00:15:53.533Z,5.80
2023-04-27T00:18:20.476Z,5.50
2023-04-27T00:20:47.224Z,5.60
2023-04-27T00:23:13.834Z,5.30
2023-04-27T00:25:40.700Z,6.67
2023-04-27T00:28:07.251Z,5.97
2023-04-27T00:30:33.964Z,6.13
2023-04-27T00:33:00.813Z,5.80
2023-04-27T00:35:27.561Z,5.57
2023-04-27T00:37:54.880Z,6.13
2023-04-27T00:40:21.647Z,5.10
2023-04-27T00:42:48.174Z,6.20
2023-04-27T00:45:14.816Z,5.60
2023-04-27T00:47:41.743Z,6.60
2023-04-27T00:50:10.323Z,5.90
2023-04-27T00:52:37.570Z,5.37
2023-04-27T00:55:05.188Z,5.40
2023-04-27T00:57:33.468Z,6.50
2023-04-27T01:00:00.432Z,6.13
2023-04-27T01:02:27.909Z,6.10
2023-04-27T01:04:55.006Z,6.70
2023-04-27T01:07:25.513Z,5.63
2023-04-27T01:09:52.180Z,6.60
2023-04-27T01:12:18.762Z,5.53
2023-04-27T01:14:45.357Z,6.20
2023-04-27T01:17:12.288Z,5.90
2023-04-27T01:19:40.320Z,5.50
2023-04-27T01:22:07.252Z,6.23
2023-04-27T01:24:33.910Z,6.20
2023-04-27T01:27:01.618Z,6.53
2023-04-27T01:29:28.454Z,5.80
2023-04-27T01:31:55.160Z,6.17
2023-04-27T01:34:21.772Z,6.10
2023-04-27T01:36:48.668Z,7.50
2023-04-27T01:39:16.450Z,6.60
2023-04-27T01:41:43.309Z,6.10
2023-04-27T01:44:09.996Z,6.13
2023-04-27T01:46:37.497Z,5.70
2023-04-27T01:49:04.120Z,6.90
2023-04-27T01:51:30.984Z,6.47
2023-04-27T01:53:57.546Z,5.87
2023-04-27T01:56:24.196Z,7.53
2023-04-27T01:58:52.879Z,6.70
2023-04-27T02:01:19.535Z,7.33
2023-04-27T02:03:46.293Z,5.80
2023-04-27T02:06:13.192Z,6.77
2023-04-27T02:08:39.810Z,6.13
2023-04-27T02:11:06.398Z,7.03
2023-04-27T02:13:32.920Z,6.50
2023-04-27T02:16:02.022Z,6.60
2023-04-27T02:18:28.822Z,7.37
2023-04-27T02:20:55.419Z,6.77
2023-04-27T02:23:22.442Z,6.37
2023-04-27T02:25:48.954Z,6.97
2023-04-27T02:28:15.684Z,7.23
2023-04-27T02:30:42.635Z,6.13
2023-04-27T02:33:09.380Z,7.40
2023-04-27T02:35:36.081Z,6.03
2023-04-27T02:38:02.878Z,7.60
2023-04-27T02:40:29.393Z,7.30
2023-04-27T02:42:55.907Z,7.13
2023-04-27T02:45:22.426Z,7.80
2023-04-27T02:47:50.812Z,6.97
2023-04-27T02:50:17.597Z,6.57
2023-04-27T02:52:44.046Z,6.37
2023-04-27T02:55:10.657Z,6.73
2023-04-27T02:57:37.551Z,7.30
2023-04-27T03:00:06.889Z,8.10
2023-04-27T03:02:33.799Z,7.17
2023-04-27T03:05:00.401Z,6.53
2023-04-27T03:07:26.880Z,7.90
2023-04-27T03:09:53.394Z,8.10
2023-04-27T03:12:20.212Z,7.60
2023-04-27T03:14:46.793Z,8.00
2023-04-27T03:17:13.638Z,6.90
2023-04-27T03:19:40.200Z,7.20
2023-04-27T03:22:06.720Z,8.57
2023-04-27T03:24:33.222Z,8.10
2023-04-27T03:26:59.717Z,9.53
2023-04-27T03:29:26.181Z,8.20
2023-04-27T03:31:52.941Z,8.50
2023-04-27T03:34:20.964Z,7.37
2023-04-27T03:36:47.440Z,7.00
2023-04-27T03:39:14.258Z,8.13
2023-04-27T03:41:41.007Z,8.00
2023-04-27T03:44:07.864Z,8.00
2023-04-27T03:46:34.664Z,8.57
2023-04-27T03:49:01.611Z,7.40
2023-04-27T03:51:28.181Z,8.70
2023-04-27T03:53:54.787Z,9.00
2023-04-27T03:56:21.563Z,9.33
2023-04-27T03:58:48.059Z,9.30
2023-04-27T04:01:14.731Z,8.40
2023-04-27T04:03:41.584Z,8.47
2023-04-27T04:06:08.563Z,7.10
2023-04-27T04:08:35.382Z,7.40
2023-04-27T04:11:01.963Z,7.40
2023-04-27T04:13:28.476Z,7.70
2023-04-27T04:16:06.287Z,7.60
2023-04-27T04:18:33.438Z,9.03
2023-04-27T04:20:59.949Z,8.67
2023-04-27T04:23:27.830Z,8.70
2023-04-27T04:25:56.645Z,9.13
2023-04-27T04:28:23.653Z,10.07
2023-04-27T04:30:51.030Z,10.80
2023-04-27T04:33:17.772Z,9.50
2023-04-27T04:35:44.654Z,10.43
2023-04-27T04:38:11.277Z,9.30
2023-04-27T04:40:38.774Z,10.40
2023-04-27T04:43:05.635Z,10.43
2023-04-27T04:45:32.518Z,10.50
2023-04-27T04:48:00.945Z,9.87
2023-04-27T04:50:27.661Z,9.20
2023-04-27T04:52:54.330Z,9.90
2023-04-27T04:55:20.958Z,10.20
2023-04-27T04:57:47.454Z,10.47
2023-04-27T05:00:14.478Z,11.60
2023-04-27T05:02:41.366Z,9.87
2023-04-27T05:05:08.745Z,9.57
2023-04-27T05:07:35.538Z,9.83
2023-04-27T05:10:02.094Z,10.30
2023-04-27T05:12:28.637Z,10.40
2023-04-27T05:14:55.105Z,11.03
2023-04-27T05:17:21.839Z,11.40
2023-04-27T05:19:48.313Z,11.37
2023-04-27T05:22:15.033Z,10.43
2023-04-27T05:24:41.831Z,9.57
2023-04-27T05:27:08.586Z,9.87
2023-04-27T05:29:35.051Z,10.27
2023-04-27T05:32:01.712Z,9.07
2023-04-27T05:34:28.480Z,10.00
2023-04-27T05:36:55.301Z,9.87
2023-04-27T05:39:21.795Z,11.20
2023-04-27T05:41:48.374Z,9.57
2023-04-27T05:44:15.079Z,10.27
2023-04-27T05:46:41.552Z,10.63
2023-04-27T05:49:08.067Z,8.70
2023-04-27T05:51:35.194Z,9.53
2023-04-27T05:54:02.081Z,9.83
2023-04-27T05:56:28.796Z,9.70
2023-04-27T05:58:55.296Z,11.17
2023-04-27T06:01:21.799Z,10.17
2023-04-27T06:03:48.620Z,9.13
2023-04-27T06:06:15.230Z,9.70
2023-04-27T06:08:42.617Z,10.13
2023-04-27T06:11:09.135Z,10.00
2023-04-27T06:13:35.980Z,11.33
2023-04-27T06:16:02.511Z,8.97
2023-04-27T06:18:29.178Z,9.30
2023-04-27T06:21:02.330Z,13.23
2023-04-27T06:23:29.309Z,8.50
2023-04-27T06:25:55.956Z,9.50
2023-04-27T06:28:22.540Z,8.40
2023-04-27T06:30:49.026Z,8.53
2023-04-27T06:33:15.605Z,8.47
2023-04-27T06:35:44.588Z,8.07
2023-04-27T06:38:12.264Z,8.33
2023-04-27T06:40:38.692Z,8.33
2023-04-27T06:43:05.177Z,7.60
2023-04-27T06:45:31.698Z,8.60
2023-04-27T06:47:58.190Z,8.13
2023-04-27T06:50:24.830Z,8.37
2023-04-27T06:52:51.328Z,8.07
2023-04-27T06:55:17.939Z,7.30
2023-04-27T06:57:44.417Z,7.87
2023-04-27T07:00:13.309Z,7.40
2023-04-27T07:02:39.996Z,7.10
2023-04-27T07:05:06.763Z,6.43
2023-04-27T07:07:33.295Z,6.90
2023-04-27T07:09:59.768Z,6.20
2023-04-27T07:12:26.904Z,6.60
2023-04-27T07:14:53.366Z,6.10
2023-04-27T07:17:20.043Z,5.53
2023-04-27T07:19:46.630Z,4.90
2023-04-27T07:22:13.219Z,5.57
2023-04-27T07:24:39.837Z,4.87
2023-04-27T07:27:06.364Z,5.20
2023-04-27T07:29:33.055Z,5.10
2023-04-27T07:32:00.080Z,5.50
2023-04-27T07:34:28.005Z,5.47
2023-04-27T07:36:57.316Z,5.67
2023-04-27T07:39:24.284Z,5.17
2023-04-27T07:41:51.702Z,4.70
2023-04-27T07:44:19.579Z,4.50
2023-04-27T07:46:49.264Z,4.60
2023-04-27T07:49:16.467Z,4.53
2023-04-27T07:51:43.009Z,3.97
2023-04-27T07:54:09.498Z,4.27
2023-04-27T07:56:36.083Z,4.23
2023-04-27T07:59:03.019Z,4.20
2023-04-27T08:01:29.524Z,4.70
2023-04-27T08:03:56.936Z,4.00
2023-04-27T08:06:23.965Z,4.77
2023-04-27T08:08:51.617Z,4.23
2023-04-27T08:11:18.218Z,4.30
2023-04-27T08:13:44.951Z,4.27
2023-04-27T08:16:11.492Z,4.70
2023-04-27T08:18:38.029Z,4.00
2023-04-27T08:21:04.817Z,4.03
2023-04-27T08:23:32.964Z,6.40
2023-04-27T08:25:59.424Z,4.50
2023-04-27T08:28:25.935Z,4.43
2023-04-27T08:30:52.757Z,3.87
2023-04-27T08:33:19.311Z,4.20
2023-04-27T08:35:45.878Z,4.20
2023-04-27T08:38:12.415Z,3.70
2023-04-27T08:40:43.443Z,3.90
2023-04-27T08:43:09.959Z,3.27
2023-04-27T08:45:36.832Z,4.10
2023-04-27T08:48:03.792Z,2.53
2023-04-27T08:50:31.445Z,3.03
2023-04-27T08:52:57.991Z,3.37
2023-04-27T08:55:24.530Z,2.93
2023-04-27T08:57:56.111Z,3.60
2023-04-27T09:00:24.755Z,3.50
2023-04-27T09:02:51.566Z,2.70
2023-04-27T09:05:24.458Z,2.80
2023-04-27T09:07:57.252Z,6.30
2023-04-27T09:10:24.329Z,3.40
2023-04-27T09:12:58.959Z,3.43
2023-04-27T09:15:28.906Z,3.30
2023-04-27T09:17:56.660Z,2.60
2023-04-27T09:20:24.086Z,2.40
2023-04-27T09:22:55.508Z,2.30
2023-04-27T09:25:23.417Z,2.40
2023-04-27T09:27:50.318Z,3.20
2023-04-27T09:30:17.180Z,3.20
2023-04-27T09:32:56.148Z,3.03
2023-04-27T09:35:24.967Z,2.40
2023-04-27T09:37:52.883Z,2.50
2023-04-27T09:40:20.989Z,3.10
2023-04-27T09:42:47.585Z,2.90
2023-04-27T09:45:14.159Z,2.47
2023-04-27T09:47:41.087Z,3.10
2023-04-27T09:50:08.346Z,2.57
2023-04-27T09:52:34.830Z,2.80
2023-04-27T09:55:02.316Z,2.60
2023-04-27T09:57:36.845Z,3.07
2023-04-27T10:00:16.330Z,3.00
2023-04-27T10:03:15.701Z,3.33
2023-04-27T10:05:59.098Z,3.23
2023-04-27T10:08:26.675Z,2.80
2023-04-27T10:10:53.534Z,3.20
2023-04-27T10:13:22.530Z,2.83
2023-04-27T10:15:49.145Z,3.03
2023-04-27T10:18:27.162Z,2.83
2023-04-27T10:20:53.731Z,3.00
2023-04-27T10:23:25.084Z,2.67
2023-04-27T10:25:52.928Z,2.60
2023-04-27T10:28:21.212Z,2.87
2023-04-27T10:30:51.922Z,2.80
2023-04-27T10:33:20.142Z,2.73
2023-04-27T10:35:56.025Z,3.30
2023-04-27T10:38:28.324Z,2.80
2023-04-27T10:41:03.006Z,2.97
2023-04-27T10:43:31.209Z,3.00
2023-04-27T10:46:14.387Z,3.10
2023-04-27T10:48:42.349Z,3.00
2023-04-27T10:51:09.085Z,3.07
2023-04-27T10:53:37.070Z,3.60
2023-04-27T10:56:06.683Z,3.20
2023-04-27T10:58:45.261Z,3.00
2023-04-27T11:01:25.987Z,2.83
2023-04-27T11:03:59.667Z,3.30
2023-04-27T11:06:28.432Z,2.80
2023-04-27T11:08:56.619Z,2.40
2023-04-27T11:11:24.290Z,3.33
2023-04-27T11:13:53.037Z,3.17
2023-04-27T11:16:19.886Z,2.97
2023-04-27T11:18:46.641Z,2.83
2023-04-27T11:21:15.395Z,3.10
2023-04-27T11:23:42.296Z,3.30
2023-04-27T11:26:09.664Z,3.40
2023-04-27T11:28:36.360Z,3.20
2023-04-27T11:31:04.558Z,3.30
2023-04-27T11:33:31.299Z,2.87
2023-04-27T11:35:58.146Z,3.20
2023-04-27T11:38:25.182Z,2.93
2023-04-27T11:41:04.932Z,3.30
2023-04-27T11:43:32.247Z,3.17
2023-04-27T11:46:02.318Z,3.20
2023-04-27T11:48:29.084Z,3.27
2023-04-27T11:50:59.115Z,2.87
2023-04-27T11:53:32.873Z,3.20
2023-04-27T11:56:02.164Z,2.93
2023-04-27T11:58:30.204Z,3.20
2023-04-27T12:00:57.983Z,3.00
2023-04-27T12:03:26.020Z,3.20
2023-04-27T12:05:52.961Z,3.13
2023-04-27T12:08:20.406Z,3.40
2023-04-27T12:10:46.953Z,3.93
2023-04-27T12:13:14.302Z,3.60
2023-04-27T12:15:41.969Z,3.20
2023-04-27T12:18:09.432Z,3.63
2023-04-27T12:20:36.193Z,3.70
2023-04-27T12:23:02.807Z,3.80
2023-04-27T12:25:29.285Z,3.33
2023-04-27T12:27:55.864Z,4.00
2023-04-27T12:30:23.901Z,4.27
2023-04-27T12:32:51.090Z,4.72
2023-04-27T12:35:18.110Z,3.83
2023-04-27T12:37:44.920Z,4.00
2023-04-27T12:40:12.415Z,4.07
2023-04-27T12:42:39.162Z,4.00
2023-04-27T12:45:06.101Z,4.60
2023-04-27T12:47:53.845Z,4.20
2023-04-27T12:50:21.491Z,3.80
2023-04-27T12:52:48.301Z,4.63
2023-04-27T12:55:28.941Z,5.10
2023-04-27T12:57:59.218Z,4.40
2023-04-27T13:00:26.108Z,4.13
2023-04-27T13:02:53.150Z,4.07
2023-04-27T13:05:21.054Z,5.10
2023-04-27T13:07:47.971Z,4.20
2023-04-27T13:10:14.727Z,4.50
2023-04-27T13:12:41.354Z,4.03
2023-04-27T13:15:08.737Z,4.60
2023-04-27T13:17:35.258Z,5.40
2023-04-27T13:20:02.261Z,4.90
2023-04-27T13:22:28.816Z,4.33
2023-04-27T13:24:56.470Z,4.27
2023-04-27T13:27:25.161Z,4.90
2023-04-27T13:29:52.092Z,4.90
2023-04-27T13:32:18.710Z,5.13
2023-04-27T13:34:45.659Z,4.57
2023-04-27T13:37:12.212Z,5.47
2023-04-27T13:39:38.907Z,4.90
2023-04-27T13:42:06.216Z,4.50
2023-04-27T13:44:32.794Z,5.03
2023-04-27T13:46:59.724Z,4.83
2023-04-27T13:49:26.333Z,5.40
2023-04-27T13:51:52.831Z,5.30
2023-04-27T13:54:21.351Z,4.50
2023-04-27T13:56:47.992Z,5.17
2023-04-27T13:59:16.257Z,4.63
2023-04-27T14:01:43.074Z,5.23
2023-04-27T14:04:10.061Z,5.13
2023-04-27T14:06:36.705Z,5.60
2023-04-27T14:09:04.001Z,4.50
2023-04-27T14:11:30.732Z,6.10
2023-04-27T14:13:58.025Z,5.90
2023-04-27T14:16:24.706Z,6.27
2023-04-27T14:18:52.302Z,5.63
2023-04-27T14:21:18.841Z,5.50
2023-04-27T14:23:45.397Z,6.33
2023-04-27T14:26:12.100Z,6.43
2023-04-27T14:28:38.834Z,6.30
2023-04-27T14:31:05.731Z,5.73
2023-04-27T14:33:32.253Z,5.60
2023-04-27T14:35:59.728Z,6.20
2023-04-27T14:38:26.206Z,5.90
2023-04-27T14:40:53.002Z,6.30
2023-04-27T14:43:19.479Z,6.53
2023-04-27T14:45:54.017Z,5.80
2023-04-27T14:48:23.797Z,7.03
2023-04-27T14:50:50.486Z,5.80
2023-04-27T14:53:17.205Z,5.60
2023-04-27T14:55:45.834Z,6.23
2023-04-27T14:58:12.505Z,12.43
2023-04-27T15:00:39.790Z,6.73
2023-04-27T15:03:06.583Z,6.70
2023-04-27T15:05:33.328Z,6.13
2023-04-27T15:08:01.453Z,6.97
2023-04-27T15:10:28.012Z,5.60
2023-04-27T15:12:54.744Z,5.70
2023-04-27T15:15:21.220Z,5.73
2023-04-27T15:17:47.752Z,6.47
2023-04-27T15:20:14.512Z,5.80
2023-04-27T15:22:41.052Z,6.10
2023-04-27T15:25:08.447Z,6.43
2023-04-27T15:27:35.723Z,6.33
2023-04-27T15:30:04.029Z,6.07
2023-04-27T15:32:31.456Z,6.13
2023-04-27T15:34:58.304Z,6.20
2023-04-27T15:37:25.750Z,6.17
2023-04-27T15:39:52.226Z,6.80
2023-04-27T15:42:18.724Z,6.43
2023-04-27T15:44:45.360Z,6.13
2023-04-27T15:47:13.893Z,7.43
2023-04-27T15:49:53.343Z,6.73
2023-04-27T15:52:23.743Z,6.27
2023-04-27T15:54:50.245Z,6.23
2023-04-27T15:57:18.252Z,5.93
2023-04-27T15:59:44.887Z,6.70
2023-04-27T16:02:12.766Z,5.97
2023-04-27T16:04:39.359Z,6.00
2023-04-27T16:07:07.286Z,7.00
2023-04-27T16:09:34.024Z,5.93
2023-04-27T16:12:01.875Z,5.90
2023-04-27T16:14:28.379Z,6.00
2023-04-27T16:16:59.423Z,6.73
2023-04-27T16:19:27.293Z,4.80
2023-04-27T16:21:53.997Z,6.30
2023-04-27T16:24:20.565Z,6.90
2023-04-27T16:26:47.403Z,5.83
2023-04-27T16:29:14.086Z,5.53
2023-04-27T16:31:42.556Z,6.13
2023-04-27T16:34:09.137Z,5.63
2023-04-27T16:36:35.703Z,5.87
2023-04-27T16:39:05.050Z,6.20
2023-04-27T16:41:31.731Z,6.10
2023-04-27T16:43:58.632Z,5.53
2023-04-27T16:46:25.416Z,5.63
2023-04-27T16:48:51.970Z,5.57
2023-04-27T16:51:18.570Z,6.50
2023-04-27T16:53:45.866Z,6.03
2023-04-27T16:56:13.454Z,6.00
2023-04-27T16:58:40.926Z,6.33
2023-04-27T17:01:07.821Z,6.70
2023-04-27T17:03:35.899Z,9.37
2023-04-27T17:06:02.999Z,5.90
2023-04-27T17:08:29.577Z,5.83
2023-04-27T17:10:56.142Z,6.57
2023-04-27T17:13:22.620Z,5.60
2023-04-27T17:15:49.688Z,5.17
2023-04-27T17:18:16.212Z,5.73
2023-04-27T17:20:42.779Z,5.67
2023-04-27T17:23:09.258Z,5.20
2023-04-27T17:25:35.806Z,6.00
2023-04-27T17:28:02.322Z,6.20
2023-04-27T17:30:28.969Z,5.77
2023-04-27T17:32:55.567Z,6.27
2023-04-27T17:35:22.120Z,5.20
2023-04-27T17:37:48.616Z,6.67
2023-04-27T17:40:20.461Z,6.23
2023-04-27T17:42:47.490Z,7.23
2023-04-27T17:45:14.018Z,6.47
2023-04-27T17:47:40.732Z,8.10
2023-04-27T17:50:08.317Z,5.93
2023-04-27T17:52:34.782Z,7.13
2023-04-27T17:55:01.356Z,6.30
2023-04-27T17:57:28.038Z,6.10
2023-04-27T17:59:54.602Z,6.80
2023-04-27T18:02:21.556Z,6.20
2023-04-27T18:04:48.143Z,7.90
2023-04-27T18:07:14.865Z,7.00
2023-04-27T18:09:41.420Z,6.83
2023-04-27T18:12:10.902Z,7.30
2023-04-27T18:14:38.409Z,7.50
2023-04-27T18:17:05.658Z,8.10
2023-04-27T18:19:32.197Z,6.63
2023-04-27T18:21:58.681Z,7.50
2023-04-27T18:24:25.256Z,7.23
2023-04-27T18:26:51.945Z,7.37
2023-04-27T18:29:18.519Z,6.60
2023-04-27T18:31:45.573Z,6.80
2023-04-27T18:34:12.096Z,6.67
2023-04-27T18:36:38.619Z,6.70
2023-04-27T18:39:05.196Z,6.00
2023-04-27T18:41:32.146Z,6.87
2023-04-27T18:44:05.655Z,6.90
2023-04-27T18:46:32.815Z,6.07
2023-04-27T18:49:00.495Z,8.10
2023-04-27T18:51:27.272Z,6.60
2023-04-27T18:53:53.843Z,6.67
2023-04-27T18:56:20.673Z,7.23
2023-04-27T18:58:48.639Z,7.20
2023-04-27T19:01:20.330Z,6.90
2023-04-27T19:03:46.938Z,6.80
2023-04-27T19:06:14.458Z,6.43
2023-04-27T19:08:41.420Z,6.23
2023-04-27T19:11:08.345Z,6.20
2023-04-27T19:13:34.980Z,6.30
2023-04-27T19:16:02.359Z,7.10
2023-04-27T19:18:29.099Z,6.60
2023-04-27T19:20:57.879Z,6.50
2023-04-27T19:23:24.479Z,6.17
2023-04-27T19:25:51.851Z,5.97
2023-04-27T19:28:23.275Z,6.60
2023-04-27T19:30:51.122Z,5.30
2023-04-27T19:33:19.733Z,5.70
2023-04-27T19:35:47.019Z,5.50
2023-04-27T19:38:13.802Z,5.33
2023-04-27T19:40:40.309Z,5.67
2023-04-27T19:43:09.578Z,5.57
2023-04-27T19:45:38.698Z,6.23
2023-04-27T19:48:06.624Z,6.33
2023-04-27T19:50:33.509Z,5.70
2023-04-27T19:52:59.994Z,6.13
2023-04-27T19:55:26.478Z,7.07
2023-04-27T19:57:52.957Z,6.17
2023-04-27T20:00:19.641Z,5.30
2023-04-27T20:02:46.281Z,6.60
2023-04-27T20:05:13.693Z,5.70
2023-04-27T20:07:40.959Z,6.40
2023-04-27T20:10:08.080Z,5.07
2023-04-27T20:15:05.236Z,6.17
2023-04-27T20:17:31.900Z,5.87
2023-04-27T20:19:58.564Z,5.97
2023-04-27T20:22:25.127Z,5.40
2023-04-27T20:24:51.632Z,5.20
2023-04-27T20:27:18.438Z,6.03
2023-04-27T20:29:47.173Z,7.80
2023-04-27T20:32:13.668Z,6.27
2023-04-27T20:34:40.376Z,6.80
2023-04-27T20:37:07.441Z,6.20
2023-04-27T20:39:35.005Z,6.50
2023-04-27T20:42:01.555Z,7.40
2023-04-27T20:44:28.367Z,6.50
2023-04-27T20:46:54.843Z,6.10
2023-04-27T20:49:31.745Z,6.70
2023-04-27T20:52:00.761Z,7.30
2023-04-27T20:54:27.532Z,6.23
2023-04-27T20:56:54.016Z,5.97
2023-04-27T20:59:20.714Z,7.07
2023-04-27T21:01:47.258Z,6.20
2023-04-27T21:04:14.239Z,5.60
2023-04-27T21:06:41.698Z,7.20
2023-04-27T21:09:08.397Z,6.23
2023-04-27T21:11:34.970Z,7.43
2023-04-27T21:14:01.695Z,7.20
2023-04-27T21:16:28.329Z,6.50
2023-04-27T21:18:54.969Z,6.70
2023-04-27T21:21:22.123Z,7.10
2023-04-27T21:23:54.372Z,6.37
2023-04-27T21:26:27.446Z,6.80
2023-04-27T21:28:53.928Z,6.67
2023-04-27T21:31:20.881Z,7.37
2023-04-27T21:33:47.435Z,7.73
2023-04-27T21:36:14.337Z,7.63
2023-04-27T21:38:40.810Z,7.20
2023-04-27T21:41:07.480Z,7.30
2023-04-27T21:43:33.987Z,7.73
2023-04-27T21:46:00.616Z,7.70
2023-04-27T21:48:27.177Z,8.13
2023-04-27T21:50:53.705Z,7.90
2023-04-27T21:53:20.268Z,8.30
2023-04-27T21:55:46.735Z,7.90
2023-04-27T21:58:13.167Z,8.37
2023-04-27T22:00:39.625Z,8.53
2023-04-27T22:03:06.299Z,9.17
2023-04-27T22:05:33.480Z,7.80
2023-04-27T22:08:00.008Z,8.23
2023-04-27T22:10:26.518Z,8.20
2023-04-27T22:12:54.787Z,8.23
2023-04-27T22:15:21.631Z,8.20
2023-04-27T22:17:48.676Z,9.33
2023-04-27T22:20:16.126Z,9.00
2023-04-27T22:22:43.062Z,7.97
2023-04-27T22:25:11.186Z,8.47
2023-04-27T22:27:44.863Z,7.33
2023-04-27T22:30:12.500Z,7.67
2023-04-27T22:32:39.103Z,7.93
2023-04-27T22:35:08.742Z,8.17
2023-04-27T22:37:40.412Z,8.13
2023-04-27T22:40:08.717Z,8.93
2023-04-27T22:42:35.374Z,7.70
2023-04-27T22:45:02.088Z,7.80
2023-04-27T22:47:28.679Z,7.37
2023-04-27T22:49:55.457Z,7.50
2023-04-27T22:52:24.648Z,7.73
2023-04-27T22:54:51.201Z,7.07
2023-04-27T22:57:17.673Z,7.90
2023-04-27T22:59:44.269Z,7.27
2023-04-27T23:02:11.286Z,7.73
2023-04-27T23:04:37.871Z,8.13
2023-04-27T23:07:05.599Z,7.47
2023-04-27T23:09:33.564Z,7.07
2023-04-27T23:12:01.012Z,6.63
2023-04-27T23:14:27.908Z,7.33
2023-04-27T23:16:56.199Z,7.93
2023-04-27T23:19:22.769Z,8.10
2023-04-27T23:21:49.327Z,6.40
2023-04-27T23:24:16.071Z,6.93
2023-04-27T23:26:42.684Z,6.83
2023-04-27T23:29:09.161Z,5.30
2023-04-27T23:31:35.770Z,6.27
2023-04-27T23:34:02.438Z,7.70
2023-04-27T23:36:29.407Z,7.10
2023-04-27T23:38:55.903Z,7.47
2023-04-27T23:41:23.309Z,6.90
2023-04-27T23:43:49.852Z,6.37
2023-04-27T23:46:16.445Z,6.70
2023-04-27T23:48:43.013Z,7.03
2023-04-27T23:51:09.467Z,7.10
2023-04-27T23:53:36.005Z,7.27
2023-04-27T23:56:02.594Z,6.60
2023-04-27T23:58:29.232Z,7.90
